This is the latest recevied weather packets stored in our database for station/object KM4KBD. If no packets are shown the sender has not sent any weather packets the latest 10 day(s).
| Time | Temp. | Humidity | Pressure | Rain* | Wind** | Luminosity | Snow |
|---|---|---|---|---|---|---|---|
| 1777355874 | 21.11° C | 68% | 1017.7 hPa | 0 mm | - | 0 W/m² | - |
| 1777355571 | 21.11° C | 68% | 1017.7 hPa | 0 mm | - | 0 W/m² | - |
| 1777355268 | 21.11° C | 68% | 1017.5 hPa | 0 mm | - | 0 W/m² | - |
| 1777354964 | 21.11° C | 70% | 1017.1 hPa | 0 mm | - | 0 W/m² | - |
| 1777354660 | 20.56° C | 71% | 1017.5 hPa | 0 mm | - | 0 W/m² | - |
| 1777354356 | 20° C | 74% | 1017.7 hPa | 0 mm | - | 0 W/m² | - |
| 1777354054 | 20° C | 76% | 1017.7 hPa | 0 mm | - | 0 W/m² | - |
| 1777353749 | 19.44° C | 78% | 1017.6 hPa | 0 mm | - | 0 W/m² | - |
| 1777353447 | 18.33° C | 82% | 1017.8 hPa | 0 mm | - | 0 W/m² | - |
| 1777353146 | 18.33° C | 84% | 1017.8 hPa | 0 mm | - | 0 W/m² | - |
| 1777352843 | 17.78° C | 86% | 1017.5 hPa | 0 mm | - | 0 W/m² | - |
| 1777352541 | 17.78° C | 89% | 1017.8 hPa | 0 mm | - | 0 W/m² | - |
| 1777352239 | 17.22° C | 91% | 1018.1 hPa | 0 mm | - | 0 W/m² | - |
| 1777351935 | 17.22° C | 93% | 1018 hPa | 0 mm | - | 0 W/m² | - |
| 1777351634 | 16.67° C | 94% | 1018.1 hPa | 0 mm | - | 0 W/m² | - |
| 1777351331 | 16.67° C | 94% | 1018.4 hPa | 0 mm | - | 0 W/m² | - |
| 1777351031 | 16.67° C | 93% | 1018.5 hPa | 0 mm | - | 0 W/m² | - |
| 1777350728 | 17.22° C | 93% | 1018.9 hPa | 0 mm | - | 0 W/m² | - |
| 1777350423 | 17.22° C | 92% | 1018.8 hPa | 0 mm | - | 0 W/m² | - |
| 1777350121 | 17.22° C | 92% | 1018.6 hPa | 0 mm | - | 0 W/m² | - |
| 1777349818 | 17.22° C | 92% | 1018.7 hPa | 0 mm | - | 0 W/m² | - |
| 1777349515 | 17.22° C | 91% | 1018.8 hPa | 0 mm | - | 0 W/m² | - |
| 1777349214 | 17.22° C | 91% | 1018.4 hPa | 0 mm | - | 0 W/m² | - |
| 1777348910 | 17.22° C | 91% | 1018.8 hPa | 0 mm | - | 0 W/m² | - |
| 1777348608 | 17.22° C | 91% | 1018.5 hPa | 0 mm | - | 0 W/m² | - |
* Rain latest hour (hover to see other rain measurements)
** Current wind speed in m/s (hover to see current wind gust speed)